createdAt,value
2018-06-28T00:01:29.519Z,10.07
2018-06-28T00:03:58.846Z,10.17
2018-06-28T00:06:28.215Z,9.50
2018-06-28T00:08:57.552Z,10.20
2018-06-28T00:11:26.830Z,9.67
2018-06-28T00:13:56.001Z,8.17
2018-06-28T00:16:25.342Z,9.10
2018-06-28T00:18:54.559Z,10.53
2018-06-28T00:21:23.844Z,10.93
2018-06-28T00:23:53.142Z,10.57
2018-06-28T00:26:22.258Z,9.80
2018-06-28T00:28:51.541Z,11.50
2018-06-28T00:31:20.687Z,10.13
2018-06-28T00:33:49.906Z,10.53
2018-06-28T00:36:19.270Z,10.60
2018-06-28T00:38:48.532Z,10.53
2018-06-28T00:41:17.825Z,10.57
2018-06-28T00:43:47.028Z,10.70
2018-06-28T00:46:16.210Z,12.00
2018-06-28T00:48:45.550Z,11.03
2018-06-28T00:51:14.923Z,14.17
2018-06-28T00:53:44.121Z,11.43
2018-06-28T00:56:13.302Z,12.33
2018-06-28T00:58:42.634Z,12.17
2018-06-28T01:01:11.939Z,11.73
2018-06-28T01:03:41.182Z,12.40
2018-06-28T01:06:10.376Z,13.00
2018-06-28T01:08:40.038Z,12.07
2018-06-28T01:11:09.558Z,12.60
2018-06-28T01:13:38.853Z,13.00
2018-06-28T01:16:08.277Z,14.00
2018-06-28T01:18:37.589Z,12.57
2018-06-28T01:21:06.963Z,13.70
2018-06-28T01:23:36.253Z,13.20
2018-06-28T01:26:05.534Z,13.60
2018-06-28T01:28:34.781Z,14.47
2018-06-28T01:31:04.015Z,15.43
2018-06-28T01:33:33.122Z,14.43
2018-06-28T01:36:02.389Z,12.87
2018-06-28T01:38:31.747Z,13.97
2018-06-28T01:41:01.056Z,15.47
2018-06-28T01:43:40.493Z,14.40
2018-06-28T01:46:10.501Z,15.70
2018-06-28T01:48:39.752Z,14.73
2018-06-28T01:51:08.984Z,15.30
2018-06-28T01:53:38.141Z,14.47
2018-06-28T01:56:07.594Z,15.53
2018-06-28T01:58:36.821Z,15.57
2018-06-28T02:01:06.102Z,15.23
2018-06-28T02:03:36.126Z,15.27
2018-06-28T02:06:05.473Z,14.63
2018-06-28T02:08:34.793Z,15.27
2018-06-28T02:11:04.094Z,16.43
2018-06-28T02:13:33.212Z,16.00
2018-06-28T02:16:02.477Z,15.63
2018-06-28T02:18:31.659Z,16.93
2018-06-28T02:21:01.108Z,16.90
2018-06-28T02:23:30.226Z,15.43
2018-06-28T02:25:59.235Z,15.90
2018-06-28T02:28:28.572Z,16.43
2018-06-28T02:30:57.923Z,15.33
2018-06-28T02:33:27.168Z,15.17
2018-06-28T02:35:56.246Z,17.30
2018-06-28T02:38:25.609Z,16.60
2018-06-28T02:40:55.043Z,16.97
2018-06-28T02:43:24.181Z,16.13
2018-06-28T02:45:53.473Z,17.17
2018-06-28T02:48:22.688Z,15.67
2018-06-28T02:50:52.414Z,16.80
2018-06-28T02:53:21.694Z,16.23
2018-06-28T02:55:50.853Z,16.77
2018-06-28T02:58:20.218Z,17.13
2018-06-28T03:00:49.473Z,16.33
2018-06-28T03:03:18.783Z,18.43
2018-06-28T03:05:48.060Z,18.77
2018-06-28T03:08:17.383Z,17.17
2018-06-28T03:10:46.490Z,17.67
2018-06-28T03:13:15.670Z,16.93
2018-06-28T03:15:45.341Z,16.07
2018-06-28T03:18:15.461Z,16.13
2018-06-28T03:20:44.703Z,16.20
2018-06-28T03:23:14.228Z,17.60
2018-06-28T03:25:43.637Z,15.03
2018-06-28T03:28:12.866Z,16.20
2018-06-28T03:30:42.016Z,15.70
2018-06-28T03:33:11.123Z,15.90
2018-06-28T03:35:39.980Z,15.77
2018-06-28T03:38:09.551Z,15.43
2018-06-28T03:40:38.811Z,14.70
2018-06-28T03:43:08.239Z,13.97
2018-06-28T03:45:37.542Z,14.63
2018-06-28T03:48:07.004Z,12.77
2018-06-28T03:50:36.962Z,13.20
2018-06-28T03:53:06.772Z,13.77
2018-06-28T03:55:35.938Z,13.03
2018-06-28T03:58:05.406Z,13.83
2018-06-28T04:00:35.074Z,14.10
2018-06-28T04:03:04.558Z,12.77
2018-06-28T04:05:33.728Z,12.13
2018-06-28T04:08:02.851Z,13.87
2018-06-28T04:10:32.679Z,12.60
2018-06-28T04:13:02.571Z,13.00
2018-06-28T04:15:32.147Z,12.57
2018-06-28T04:18:01.832Z,13.37
2018-06-28T04:20:31.182Z,13.23
2018-06-28T04:23:02.318Z,14.73
2018-06-28T04:25:31.789Z,12.47
2018-06-28T04:28:00.990Z,13.73
2018-06-28T04:30:31.305Z,11.93
2018-06-28T04:33:00.712Z,13.27
2018-06-28T04:35:29.869Z,12.13
2018-06-28T04:37:59.022Z,11.23
2018-06-28T04:40:28.178Z,12.63
2018-06-28T04:42:57.649Z,12.07
2018-06-28T04:45:26.328Z,12.83
2018-06-28T04:47:55.638Z,12.77
2018-06-28T04:50:24.844Z,15.83
2018-06-28T04:52:54.084Z,14.93
2018-06-28T04:55:23.222Z,12.27
2018-06-28T04:57:52.438Z,13.93
2018-06-28T05:00:21.657Z,14.17
2018-06-28T05:02:50.865Z,13.37
2018-06-28T05:05:19.947Z,13.47
2018-06-28T05:07:49.204Z,13.20
2018-06-28T05:10:18.397Z,14.10
2018-06-28T05:12:47.732Z,12.60
2018-06-28T05:15:17.041Z,12.93
2018-06-28T05:17:46.409Z,11.50
2018-06-28T05:20:15.565Z,14.43
2018-06-28T05:22:44.804Z,10.90
2018-06-28T05:25:14.301Z,12.47
2018-06-28T05:27:43.619Z,12.37
2018-06-28T05:30:12.757Z,12.30
2018-06-28T05:32:42.122Z,12.57
2018-06-28T05:35:11.450Z,12.50
2018-06-28T05:37:40.532Z,11.07
2018-06-28T05:40:09.614Z,10.60
2018-06-28T05:42:38.928Z,9.93
2018-06-28T05:45:08.160Z,11.13
2018-06-28T05:47:37.395Z,10.43
2018-06-28T05:50:06.695Z,9.43
2018-06-28T05:52:35.941Z,8.93
2018-06-28T05:55:05.353Z,10.33
2018-06-28T05:57:37.905Z,11.13
2018-06-28T06:00:07.484Z,10.17
2018-06-28T06:02:36.785Z,10.70
2018-06-28T06:05:05.993Z,10.83
2018-06-28T06:07:35.186Z,9.97
2018-06-28T06:10:04.961Z,11.03
2018-06-28T06:12:34.231Z,11.73
2018-06-28T06:15:03.458Z,10.60
2018-06-28T06:17:32.617Z,15.67
2018-06-28T06:20:01.889Z,13.47
2018-06-28T06:22:30.989Z,12.43
2018-06-28T06:25:00.201Z,13.13
2018-06-28T06:27:29.488Z,12.00
2018-06-28T06:29:58.705Z,13.00
2018-06-28T06:32:27.888Z,12.53
2018-06-28T06:34:57.282Z,12.47
2018-06-28T06:37:26.472Z,13.63
2018-06-28T06:39:55.784Z,14.10
2018-06-28T06:42:25.153Z,15.57
2018-06-28T06:44:54.379Z,15.70
2018-06-28T06:47:23.782Z,16.40
2018-06-28T06:49:53.417Z,15.13
2018-06-28T06:52:22.618Z,16.27
2018-06-28T06:54:51.880Z,15.87
2018-06-28T06:57:21.252Z,14.30
2018-06-28T06:59:50.437Z,15.13
2018-06-28T07:02:19.631Z,14.73
2018-06-28T07:04:48.823Z,15.77
2018-06-28T07:07:18.008Z,16.20
2018-06-28T07:09:47.311Z,15.07
2018-06-28T07:12:16.640Z,15.70
2018-06-28T07:14:45.862Z,15.37
2018-06-28T07:17:15.071Z,15.40
2018-06-28T07:19:44.391Z,17.03
2018-06-28T07:22:13.616Z,15.23
2018-06-28T07:24:42.865Z,15.83
2018-06-28T07:27:12.076Z,16.30
2018-06-28T07:29:41.341Z,16.93
2018-06-28T07:32:11.405Z,16.00
2018-06-28T07:34:40.618Z,16.77
2018-06-28T07:37:10.018Z,14.83
2018-06-28T07:39:39.344Z,16.63
2018-06-28T07:42:08.627Z,14.83
2018-06-28T07:44:37.779Z,16.20
2018-06-28T07:47:07.171Z,15.60
2018-06-28T07:49:36.475Z,14.27
2018-06-28T07:52:05.778Z,14.97
2018-06-28T07:54:35.926Z,15.63
2018-06-28T07:57:05.212Z,13.43
2018-06-28T07:59:34.533Z,14.83
2018-06-28T08:02:03.864Z,15.57
2018-06-28T08:04:33.239Z,16.17
2018-06-28T08:07:02.491Z,15.83
2018-06-28T08:09:31.730Z,13.70
2018-06-28T08:12:00.947Z,14.10
2018-06-28T08:14:30.151Z,13.50
2018-06-28T08:16:59.540Z,13.77
2018-06-28T08:19:28.297Z,14.17
2018-06-28T08:21:57.538Z,13.70
2018-06-28T08:24:26.816Z,14.13
2018-06-28T08:26:56.367Z,13.17
2018-06-28T08:29:25.853Z,12.10
2018-06-28T08:31:55.079Z,13.00
2018-06-28T08:34:24.363Z,12.07
2018-06-28T08:36:53.585Z,12.57
2018-06-28T08:39:22.966Z,13.43
2018-06-28T08:41:52.514Z,13.13
2018-06-28T08:44:21.968Z,13.57
2018-06-28T08:46:51.368Z,13.23
2018-06-28T08:49:20.744Z,13.00
2018-06-28T08:51:50.032Z,11.37
2018-06-28T08:54:19.515Z,13.50
2018-06-28T08:56:48.844Z,13.07
2018-06-28T08:59:18.196Z,12.40
2018-06-28T09:01:47.630Z,12.20
2018-06-28T09:04:17.038Z,20.03
2018-06-28T09:06:46.402Z,14.00
2018-06-28T09:09:15.763Z,12.57
2018-06-28T09:11:45.163Z,11.47
2018-06-28T09:14:14.515Z,12.00
2018-06-28T09:16:43.950Z,12.33
2018-06-28T09:19:13.169Z,11.43
2018-06-28T09:21:42.544Z,11.07
2018-06-28T09:24:11.797Z,10.73
2018-06-28T09:26:41.158Z,10.47
2018-06-28T09:29:10.425Z,10.43
2018-06-28T09:31:39.712Z,9.90
2018-06-28T09:34:09.099Z,13.40
2018-06-28T09:36:38.346Z,9.47
2018-06-28T09:39:10.138Z,9.40
2018-06-28T09:41:39.447Z,10.30
2018-06-28T09:44:08.840Z,8.83
2018-06-28T09:46:38.167Z,11.43
2018-06-28T09:49:07.453Z,9.05
2018-06-28T09:51:36.842Z,10.32
2018-06-28T09:54:05.744Z,7.65
2018-06-28T09:56:35.000Z,7.00
2018-06-28T09:59:04.382Z,5.95
2018-06-28T10:01:33.768Z,7.50
2018-06-28T10:04:03.084Z,7.33
2018-06-28T10:06:32.672Z,7.62
2018-06-28T10:09:01.971Z,6.70
2018-06-28T10:11:31.164Z,6.50
2018-06-28T10:14:00.527Z,7.28
2018-06-28T10:16:30.609Z,6.90
2018-06-28T10:19:00.111Z,7.35
2018-06-28T10:21:29.470Z,6.97
2018-06-28T10:23:58.901Z,7.35
2018-06-28T10:26:28.489Z,6.65
2018-06-28T10:28:57.723Z,6.45
2018-06-28T10:31:27.360Z,13.60
2018-06-28T10:33:56.807Z,6.83
2018-06-28T10:36:26.266Z,6.65
2018-06-28T10:38:55.825Z,6.00
2018-06-28T10:41:25.384Z,6.50
2018-06-28T10:43:54.776Z,5.60
2018-06-28T10:46:24.209Z,5.70
2018-06-28T10:48:54.130Z,5.17
2018-06-28T10:51:23.587Z,5.95
2018-06-28T10:53:53.120Z,5.53
2018-06-28T10:56:22.666Z,6.05
2018-06-28T10:58:52.128Z,5.58
2018-06-28T11:01:21.610Z,6.92
2018-06-28T11:03:51.240Z,5.65
2018-06-28T11:06:20.650Z,6.30
2018-06-28T11:08:50.097Z,5.92
2018-06-28T11:11:19.415Z,5.97
2018-06-28T11:13:48.865Z,5.70
2018-06-28T11:16:18.805Z,5.90
2018-06-28T11:18:48.417Z,5.90
2018-06-28T11:21:17.844Z,5.75
2018-06-28T11:23:47.290Z,5.42
2018-06-28T11:26:16.822Z,6.97
2018-06-28T11:28:46.370Z,4.92
2018-06-28T11:31:15.846Z,5.05
2018-06-28T11:33:45.255Z,5.17
2018-06-28T11:36:14.643Z,5.42
2018-06-28T11:38:44.019Z,6.87
2018-06-28T11:41:13.344Z,25.45
2018-06-28T11:43:42.773Z,4.90
2018-06-28T11:46:12.127Z,5.92
2018-06-28T11:48:41.777Z,7.05
2018-06-28T11:51:11.129Z,6.40
2018-06-28T11:53:40.600Z,7.42
2018-06-28T11:56:10.068Z,7.80
2018-06-28T11:58:39.433Z,5.10
2018-06-28T12:01:08.930Z,5.05
2018-06-28T12:03:39.316Z,5.40
2018-06-28T12:06:09.307Z,5.00
2018-06-28T12:08:38.864Z,4.90
2018-06-28T12:11:08.514Z,5.12
2018-06-28T12:13:37.947Z,5.00
2018-06-28T12:16:07.481Z,5.22
2018-06-28T12:18:36.890Z,5.35
2018-06-28T12:21:06.335Z,5.30
2018-06-28T12:23:36.474Z,6.00
2018-06-28T12:26:06.306Z,5.95
2018-06-28T12:28:35.894Z,5.47
2018-06-28T12:31:05.521Z,5.25
2018-06-28T12:33:34.935Z,5.22
2018-06-28T12:36:04.219Z,5.20
2018-06-28T12:38:33.751Z,4.65
2018-06-28T12:41:03.061Z,4.00
2018-06-28T12:43:32.641Z,4.53
2018-06-28T12:46:02.459Z,6.20
2018-06-28T12:48:31.770Z,3.98
2018-06-28T12:51:01.278Z,4.80
2018-06-28T12:53:30.715Z,4.37
2018-06-28T12:56:28.245Z,5.83
2018-06-28T12:58:59.200Z,3.67
2018-06-28T13:01:29.132Z,3.65
2018-06-28T13:03:58.930Z,3.70
2018-06-28T13:06:28.389Z,3.58
2018-06-28T13:08:58.613Z,4.25
2018-06-28T13:11:28.555Z,3.30
2018-06-28T13:13:58.064Z,4.70
2018-06-28T13:16:28.446Z,4.12
2018-06-28T13:18:58.626Z,7.45
2018-06-28T13:21:27.543Z,4.75
2018-06-28T13:23:56.920Z,3.70
2018-06-28T13:26:26.324Z,3.87
2018-06-28T13:28:55.485Z,3.62
2018-06-28T13:31:24.986Z,4.87
2018-06-28T13:33:54.592Z,3.90
2018-06-28T13:36:24.338Z,3.80
2018-06-28T13:38:53.794Z,4.20
2018-06-28T13:41:23.537Z,5.35
2018-06-28T13:43:52.731Z,3.77
2018-06-28T13:46:22.247Z,3.80
2018-06-28T13:48:51.493Z,6.12
2018-06-28T13:51:21.010Z,3.85
2018-06-28T13:53:50.457Z,3.62
2018-06-28T13:56:19.920Z,3.72
2018-06-28T13:58:49.377Z,4.17
2018-06-28T14:01:18.701Z,4.25
2018-06-28T14:03:48.168Z,4.97
2018-06-28T14:06:17.662Z,4.10
2018-06-28T14:08:47.019Z,4.15
2018-06-28T14:11:16.512Z,4.95
2018-06-28T14:13:46.019Z,4.65
2018-06-28T14:16:15.504Z,4.08
2018-06-28T14:18:45.046Z,4.90
2018-06-28T14:21:14.551Z,4.47
2018-06-28T14:23:44.123Z,4.37
2018-06-28T14:26:13.746Z,4.95
2018-06-28T14:28:43.441Z,4.62
2018-06-28T14:31:13.691Z,4.87
2018-06-28T14:33:43.237Z,5.03
2018-06-28T14:36:12.894Z,5.37
2018-06-28T14:38:43.408Z,5.10
2018-06-28T14:41:12.858Z,5.37
2018-06-28T14:43:42.395Z,4.08
2018-06-28T14:46:12.351Z,4.92
2018-06-28T14:48:42.044Z,5.72
2018-06-28T14:51:12.836Z,5.87
2018-06-28T14:53:42.509Z,5.60
2018-06-28T14:56:11.415Z,4.80
2018-06-28T14:58:41.159Z,5.90
2018-06-28T15:03:51.961Z,4.95
2018-06-28T15:06:22.406Z,5.12
2018-06-28T15:08:54.322Z,6.92
2018-06-28T15:11:27.792Z,7.90
2018-06-28T15:14:00.491Z,6.12
2018-06-28T15:16:40.009Z,7.50
2018-06-28T15:19:11.562Z,6.60
2018-06-28T15:21:43.924Z,6.60
2018-06-28T15:24:16.112Z,9.45
2018-06-28T15:26:46.252Z,6.72
2018-06-28T15:29:15.720Z,5.75
2018-06-28T15:31:45.903Z,10.00
2018-06-28T15:34:17.631Z,7.67
2018-06-28T15:36:47.703Z,6.72
2018-06-28T15:39:17.782Z,6.75
2018-06-28T15:41:47.234Z,6.15
2018-06-28T15:44:18.030Z,6.28
2018-06-28T15:46:48.393Z,7.35
2018-06-28T15:49:17.393Z,7.87
2018-06-28T15:51:46.944Z,7.92
2018-06-28T15:54:16.788Z,9.30
2018-06-28T15:56:46.137Z,8.40
2018-06-28T15:59:16.598Z,9.03
2018-06-28T16:01:46.184Z,8.63
2018-06-28T16:04:16.261Z,8.98
2018-06-28T16:06:45.644Z,10.25
2018-06-28T16:09:15.577Z,8.88
2018-06-28T16:11:44.948Z,15.35
2018-06-28T16:14:14.370Z,10.95
2018-06-28T16:16:48.218Z,10.40
2018-06-28T16:19:17.589Z,11.95
2018-06-28T16:21:47.148Z,12.13
2018-06-28T16:24:16.933Z,12.37
2018-06-28T16:26:46.634Z,13.75
2018-06-28T16:29:16.415Z,12.35
2018-06-28T16:31:46.056Z,13.00
2018-06-28T16:34:15.685Z,14.95
2018-06-28T16:36:45.721Z,14.63
2018-06-28T16:39:15.244Z,13.70
2018-06-28T16:41:44.567Z,15.10
2018-06-28T16:44:14.181Z,15.53
2018-06-28T16:46:44.320Z,16.13
2018-06-28T16:49:13.955Z,15.15
2018-06-28T16:51:43.740Z,14.87
2018-06-28T16:54:12.975Z,13.77
2018-06-28T16:56:42.706Z,13.10
2018-06-28T16:59:12.077Z,12.97
2018-06-28T17:01:41.395Z,11.70
2018-06-28T17:04:10.921Z,12.60
2018-06-28T17:06:40.603Z,10.07
2018-06-28T17:09:11.174Z,10.33
2018-06-28T17:11:40.783Z,10.60
2018-06-28T17:14:10.208Z,10.60
2018-06-28T17:22:15.770Z,13.27
2018-06-28T17:24:45.458Z,13.13
2018-06-28T17:27:15.020Z,17.13
2018-06-28T17:29:44.234Z,13.33
2018-06-28T17:32:13.572Z,11.30
2018-06-28T17:34:46.550Z,11.73
2018-06-28T21:11:43.558Z,16.90
2018-06-28T21:23:13.359Z,13.40
2018-06-28T21:46:07.569Z,14.80
2018-06-28T21:48:45.244Z,12.63
2018-06-28T21:54:08.426Z,12.75
2018-06-28T21:59:36.274Z,17.42
2018-06-28T22:02:11.130Z,12.80
2018-06-28T22:04:40.293Z,12.23
2018-06-28T22:07:10.860Z,15.25
2018-06-28T22:09:40.513Z,12.18
2018-06-28T22:12:10.236Z,13.13
2018-06-28T22:14:40.101Z,14.00
2018-06-28T22:17:09.780Z,12.50
2018-06-28T22:19:38.943Z,11.90
2018-06-28T22:22:08.753Z,13.72
2018-06-28T22:24:38.275Z,12.70
2018-06-28T22:27:08.157Z,12.40
2018-06-28T22:29:37.658Z,12.27
2018-06-28T22:32:07.116Z,12.43
2018-06-28T22:34:37.195Z,12.47
2018-06-28T22:37:07.043Z,13.28
2018-06-28T22:39:36.761Z,12.05
2018-06-28T22:42:06.680Z,11.43
2018-06-28T22:44:36.347Z,13.38
2018-06-28T22:47:06.164Z,13.35
2018-06-28T22:49:36.111Z,12.67
2018-06-28T22:52:05.735Z,11.63
2018-06-28T22:54:35.460Z,14.47
2018-06-28T22:57:05.038Z,11.45
2018-06-28T22:59:35.495Z,12.45
2018-06-28T23:02:05.463Z,11.97
2018-06-28T23:04:34.862Z,15.83
2018-06-28T23:07:04.418Z,10.78
2018-06-28T23:09:33.889Z,10.40
2018-06-28T23:12:04.668Z,15.13
2018-06-28T23:14:35.636Z,11.68
2018-06-28T23:17:05.601Z,17.00
2018-06-28T23:19:35.545Z,16.42
2018-06-28T23:22:05.474Z,12.70
2018-06-28T23:24:36.237Z,12.27
2018-06-28T23:27:07.071Z,14.60
2018-06-28T23:29:36.785Z,12.20
2018-06-28T23:32:07.009Z,12.80
2018-06-28T23:34:36.896Z,12.43
2018-06-28T23:37:09.017Z,13.58
2018-06-28T23:39:38.739Z,14.00
2018-06-28T23:42:08.513Z,11.05
2018-06-28T23:44:38.192Z,12.37
2018-06-28T23:47:08.198Z,13.43
2018-06-28T23:49:37.920Z,12.15
2018-06-28T23:52:07.944Z,15.43
2018-06-28T23:54:38.458Z,12.17
2018-06-28T23:57:08.369Z,11.80
2018-06-28T23:59:38.446Z,13.00
